sensor_id;sensor_type;location;lat;lon;timestamp;temperature;humidity
31046;DHT22;17711;54.018;9.300;2022-09-09T00:01:03;16.30;99.90
31046;DHT22;17711;54.018;9.300;2022-09-09T00:03:40;16.30;99.90
31046;DHT22;17711;54.018;9.300;2022-09-09T00:06:19;16.30;99.90
31046;DHT22;17711;54.018;9.300;2022-09-09T00:09:00;16.30;99.90
31046;DHT22;17711;54.018;9.300;2022-09-09T00:11:34;16.30;99.90
31046;DHT22;17711;54.018;9.300;2022-09-09T00:14:12;16.30;99.90
31046;DHT22;17711;54.018;9.300;2022-09-09T00:16:47;16.30;99.90
31046;DHT22;17711;54.018;9.300;2022-09-09T00:19:22;16.30;99.90
31046;DHT22;17711;54.018;9.300;2022-09-09T00:22:06;16.30;99.90
31046;DHT22;17711;54.018;9.300;2022-09-09T00:24:41;16.30;99.90
31046;DHT22;17711;54.018;9.300;2022-09-09T00:27:16;16.30;99.90
31046;DHT22;17711;54.018;9.300;2022-09-09T00:29:53;16.30;99.90
31046;DHT22;17711;54.018;9.300;2022-09-09T00:32:28;16.30;99.90
31046;DHT22;17711;54.018;9.300;2022-09-09T00:35:03;16.20;99.90
31046;DHT22;17711;54.018;9.300;2022-09-09T00:37:32;16.10;99.90
31046;DHT22;17711;54.018;9.300;2022-09-09T00:40:15;16.20;99.90
31046;DHT22;17711;54.018;9.300;2022-09-09T00:42:51;16.10;99.90
31046;DHT22;17711;54.018;9.300;2022-09-09T00:45:38;16.10;99.90
31046;DHT22;17711;54.018;9.300;2022-09-09T00:48:15;16.00;99.90
31046;DHT22;17711;54.018;9.300;2022-09-09T00:50:48;16.00;99.90
31046;DHT22;17711;54.018;9.300;2022-09-09T00:53:32;16.00;99.90
31046;DHT22;17711;54.018;9.300;2022-09-09T00:56:12;15.90;99.90
31046;DHT22;17711;54.018;9.300;2022-09-09T00:58:42;15.90;99.90
31046;DHT22;17711;54.018;9.300;2022-09-09T01:01:12;16.00;99.90
31046;DHT22;17711;54.018;9.300;2022-09-09T01:03:46;15.90;99.90
31046;DHT22;17711;54.018;9.300;2022-09-09T01:06:21;15.90;99.90
31046;DHT22;17711;54.018;9.300;2022-09-09T01:09:04;15.80;99.90
31046;DHT22;17711;54.018;9.300;2022-09-09T01:11:42;15.80;99.90
31046;DHT22;17711;54.018;9.300;2022-09-09T01:14:24;15.80;99.90
31046;DHT22;17711;54.018;9.300;2022-09-09T01:17:00;15.80;99.90
31046;DHT22;17711;54.018;9.300;2022-09-09T01:19:40;15.70;99.90
31046;DHT22;17711;54.018;9.300;2022-09-09T01:22:22;15.80;99.90
31046;DHT22;17711;54.018;9.300;2022-09-09T01:25:19;15.80;99.90
31046;DHT22;17711;54.018;9.300;2022-09-09T01:27:52;15.80;99.90
31046;DHT22;17711;54.018;9.300;2022-09-09T01:30:22;15.70;99.90
31046;DHT22;17711;54.018;9.300;2022-09-09T01:32:54;15.60;99.90
31046;DHT22;17711;54.018;9.300;2022-09-09T01:35:39;15.60;99.90
31046;DHT22;17711;54.018;9.300;2022-09-09T01:38:08;15.70;99.90
31046;DHT22;17711;54.018;9.300;2022-09-09T01:40:37;15.70;99.90
31046;DHT22;17711;54.018;9.300;2022-09-09T01:43:07;15.60;99.90
31046;DHT22;17711;54.018;9.300;2022-09-09T01:45:37;15.60;99.90
31046;DHT22;17711;54.018;9.300;2022-09-09T01:48:06;15.60;99.90
31046;DHT22;17711;54.018;9.300;2022-09-09T01:50:35;15.60;99.90
31046;DHT22;17711;54.018;9.300;2022-09-09T01:53:04;15.70;99.90
31046;DHT22;17711;54.018;9.300;2022-09-09T01:55:37;15.70;99.90
31046;DHT22;17711;54.018;9.300;2022-09-09T01:58:17;15.70;99.90
31046;DHT22;17711;54.018;9.300;2022-09-09T02:00:56;15.70;99.90
31046;DHT22;17711;54.018;9.300;2022-09-09T02:03:29;15.80;99.90
31046;DHT22;17711;54.018;9.300;2022-09-09T02:06:08;15.80;99.90
31046;DHT22;17711;54.018;9.300;2022-09-09T02:08:43;15.70;99.90
31046;DHT22;17711;54.018;9.300;2022-09-09T02:11:15;15.80;99.90
31046;DHT22;17711;54.018;9.300;2022-09-09T02:13:46;15.80;99.90
31046;DHT22;17711;54.018;9.300;2022-09-09T02:16:21;15.90;99.90
31046;DHT22;17711;54.018;9.300;2022-09-09T02:18:57;15.90;99.90
31046;DHT22;17711;54.018;9.300;2022-09-09T02:21:28;15.90;99.90
31046;DHT22;17711;54.018;9.300;2022-09-09T02:24:02;16.00;99.90
31046;DHT22;17711;54.018;9.300;2022-09-09T02:26:35;16.00;99.90
31046;DHT22;17711;54.018;9.300;2022-09-09T02:29:09;16.00;99.90
31046;DHT22;17711;54.018;9.300;2022-09-09T02:31:41;16.00;99.90
31046;DHT22;17711;54.018;9.300;2022-09-09T02:34:12;16.00;99.90
31046;DHT22;17711;54.018;9.300;2022-09-09T02:36:43;16.00;99.90
31046;DHT22;17711;54.018;9.300;2022-09-09T02:39:12;16.00;99.90
31046;DHT22;17711;54.018;9.300;2022-09-09T02:41:42;16.00;99.90
31046;DHT22;17711;54.018;9.300;2022-09-09T02:44:13;15.90;99.90
31046;DHT22;17711;54.018;9.300;2022-09-09T02:47:00;16.00;99.90
31046;DHT22;17711;54.018;9.300;2022-09-09T02:49:40;15.90;99.90
31046;DHT22;17711;54.018;9.300;2022-09-09T02:52:14;15.90;99.90
31046;DHT22;17711;54.018;9.300;2022-09-09T02:54:43;15.80;99.90
31046;DHT22;17711;54.018;9.300;2022-09-09T02:57:16;15.80;99.90
31046;DHT22;17711;54.018;9.300;2022-09-09T02:59:47;15.80;99.90
31046;DHT22;17711;54.018;9.300;2022-09-09T03:02:23;15.70;99.90
31046;DHT22;17711;54.018;9.300;2022-09-09T03:04:52;15.80;99.90
31046;DHT22;17711;54.018;9.300;2022-09-09T03:07:27;15.70;99.90
31046;DHT22;17711;54.018;9.300;2022-09-09T03:09:55;15.80;99.90
31046;DHT22;17711;54.018;9.300;2022-09-09T03:12:27;15.80;99.90
31046;DHT22;17711;54.018;9.300;2022-09-09T03:14:57;15.70;99.90
31046;DHT22;17711;54.018;9.300;2022-09-09T03:17:25;15.80;99.90
31046;DHT22;17711;54.018;9.300;2022-09-09T03:19:55;15.80;99.90
31046;DHT22;17711;54.018;9.300;2022-09-09T03:22:25;15.80;99.90
31046;DHT22;17711;54.018;9.300;2022-09-09T03:24:54;15.80;99.90
31046;DHT22;17711;54.018;9.300;2022-09-09T03:27:22;15.80;99.90
31046;DHT22;17711;54.018;9.300;2022-09-09T03:29:51;15.70;99.90
31046;DHT22;17711;54.018;9.300;2022-09-09T03:32:21;15.70;99.90
31046;DHT22;17711;54.018;9.300;2022-09-09T03:34:52;15.80;99.90
31046;DHT22;17711;54.018;9.300;2022-09-09T03:37:21;15.70;99.90
31046;DHT22;17711;54.018;9.300;2022-09-09T03:39:49;15.70;99.90
31046;DHT22;17711;54.018;9.300;2022-09-09T03:42:18;15.80;99.90
31046;DHT22;17711;54.018;9.300;2022-09-09T03:44:47;15.70;99.90
31046;DHT22;17711;54.018;9.300;2022-09-09T03:47:17;15.70;99.90
31046;DHT22;17711;54.018;9.300;2022-09-09T03:49:48;15.80;99.90
31046;DHT22;17711;54.018;9.300;2022-09-09T03:52:16;15.80;99.90
31046;DHT22;17711;54.018;9.300;2022-09-09T03:54:49;15.80;99.90
31046;DHT22;17711;54.018;9.300;2022-09-09T03:57:18;15.80;99.90
31046;DHT22;17711;54.018;9.300;2022-09-09T03:59:47;15.80;99.90
31046;DHT22;17711;54.018;9.300;2022-09-09T04:02:15;15.80;99.90
31046;DHT22;17711;54.018;9.300;2022-09-09T04:04:44;15.80;99.90
31046;DHT22;17711;54.018;9.300;2022-09-09T04:07:14;15.70;99.90
31046;DHT22;17711;54.018;9.300;2022-09-09T04:09:45;15.70;99.90
31046;DHT22;17711;54.018;9.300;2022-09-09T04:12:14;15.70;99.90
31046;DHT22;17711;54.018;9.300;2022-09-09T04:14:43;15.70;99.90
31046;DHT22;17711;54.018;9.300;2022-09-09T04:17:12;15.70;99.90
31046;DHT22;17711;54.018;9.300;2022-09-09T04:19:41;15.70;99.90
31046;DHT22;17711;54.018;9.300;2022-09-09T04:22:10;15.80;99.90
31046;DHT22;17711;54.018;9.300;2022-09-09T04:24:40;15.80;99.90
31046;DHT22;17711;54.018;9.300;2022-09-09T04:27:14;15.80;99.90
31046;DHT22;17711;54.018;9.300;2022-09-09T04:29:43;15.80;99.90
31046;DHT22;17711;54.018;9.300;2022-09-09T04:32:11;15.80;99.90
31046;DHT22;17711;54.018;9.300;2022-09-09T04:34:40;15.80;99.90
31046;DHT22;17711;54.018;9.300;2022-09-09T04:37:08;15.80;99.90
31046;DHT22;17711;54.018;9.300;2022-09-09T04:39:42;15.70;99.90
31046;DHT22;17711;54.018;9.300;2022-09-09T04:42:12;15.80;99.90
31046;DHT22;17711;54.018;9.300;2022-09-09T04:44:40;15.80;99.90
31046;DHT22;17711;54.018;9.300;2022-09-09T04:47:09;15.70;99.90
31046;DHT22;17711;54.018;9.300;2022-09-09T04:49:37;15.70;99.90
31046;DHT22;17711;54.018;9.300;2022-09-09T04:52:06;15.60;99.90
31046;DHT22;17711;54.018;9.300;2022-09-09T04:54:34;15.60;99.90
31046;DHT22;17711;54.018;9.300;2022-09-09T04:57:04;15.50;99.90
31046;DHT22;17711;54.018;9.300;2022-09-09T04:59:34;15.60;99.90
31046;DHT22;17711;54.018;9.300;2022-09-09T05:02:02;15.60;99.90
31046;DHT22;17711;54.018;9.300;2022-09-09T05:04:31;15.60;99.90
31046;DHT22;17711;54.018;9.300;2022-09-09T05:07:00;15.50;99.90
31046;DHT22;17711;54.018;9.300;2022-09-09T05:09:29;15.50;99.90
31046;DHT22;17711;54.018;9.300;2022-09-09T05:11:58;15.50;99.90
31046;DHT22;17711;54.018;9.300;2022-09-09T05:14:28;15.50;99.90
31046;DHT22;17711;54.018;9.300;2022-09-09T05:16:57;15.50;99.90
31046;DHT22;17711;54.018;9.300;2022-09-09T05:19:26;15.50;99.90
31046;DHT22;17711;54.018;9.300;2022-09-09T05:21:54;15.50;99.90
31046;DHT22;17711;54.018;9.300;2022-09-09T05:24:23;15.50;99.90
31046;DHT22;17711;54.018;9.300;2022-09-09T05:26:53;15.50;99.90
31046;DHT22;17711;54.018;9.300;2022-09-09T05:29:28;15.50;99.90
31046;DHT22;17711;54.018;9.300;2022-09-09T05:31:56;15.50;99.90
31046;DHT22;17711;54.018;9.300;2022-09-09T05:34:25;15.60;99.90
31046;DHT22;17711;54.018;9.300;2022-09-09T05:36:54;15.60;99.90
31046;DHT22;17711;54.018;9.300;2022-09-09T05:39:22;15.60;99.90
31046;DHT22;17711;54.018;9.300;2022-09-09T05:41:51;15.70;99.90
31046;DHT22;17711;54.018;9.300;2022-09-09T05:44:20;15.70;99.90
31046;DHT22;17711;54.018;9.300;2022-09-09T05:46:52;15.70;99.90
31046;DHT22;17711;54.018;9.300;2022-09-09T05:49:21;15.70;99.90
31046;DHT22;17711;54.018;9.300;2022-09-09T05:51:50;15.80;99.90
31046;DHT22;17711;54.018;9.300;2022-09-09T05:54:18;15.80;99.90
31046;DHT22;17711;54.018;9.300;2022-09-09T05:56:47;15.90;99.90
31046;DHT22;17711;54.018;9.300;2022-09-09T05:59:18;15.90;99.90
31046;DHT22;17711;54.018;9.300;2022-09-09T06:01:46;16.00;99.90
31046;DHT22;17711;54.018;9.300;2022-09-09T06:04:16;16.00;99.90
31046;DHT22;17711;54.018;9.300;2022-09-09T06:06:45;16.00;99.90
31046;DHT22;17711;54.018;9.300;2022-09-09T06:09:14;16.10;99.90
31046;DHT22;17711;54.018;9.300;2022-09-09T06:11:43;16.10;99.90
31046;DHT22;17711;54.018;9.300;2022-09-09T06:14:12;16.10;99.90
31046;DHT22;17711;54.018;9.300;2022-09-09T06:16:41;16.10;99.90
31046;DHT22;17711;54.018;9.300;2022-09-09T06:19:11;16.10;99.90
31046;DHT22;17711;54.018;9.300;2022-09-09T06:21:42;16.20;99.90
31046;DHT22;17711;54.018;9.300;2022-09-09T06:24:11;16.20;99.90
31046;DHT22;17711;54.018;9.300;2022-09-09T06:26:44;16.20;99.90
31046;DHT22;17711;54.018;9.300;2022-09-09T06:29:13;16.20;99.90
31046;DHT22;17711;54.018;9.300;2022-09-09T06:31:41;16.10;99.90
31046;DHT22;17711;54.018;9.300;2022-09-09T06:34:10;16.10;99.90
31046;DHT22;17711;54.018;9.300;2022-09-09T06:36:39;16.10;99.90
31046;DHT22;17711;54.018;9.300;2022-09-09T06:39:09;16.30;99.90
31046;DHT22;17711;54.018;9.300;2022-09-09T06:41:41;16.40;99.90
31046;DHT22;17711;54.018;9.300;2022-09-09T06:44:10;16.50;99.90
31046;DHT22;17711;54.018;9.300;2022-09-09T06:46:39;16.60;99.90
31046;DHT22;17711;54.018;9.300;2022-09-09T06:49:08;16.70;99.90
31046;DHT22;17711;54.018;9.300;2022-09-09T06:51:38;16.60;99.90
31046;DHT22;17711;54.018;9.300;2022-09-09T06:54:11;16.60;99.90
31046;DHT22;17711;54.018;9.300;2022-09-09T06:56:41;16.70;99.90
31046;DHT22;17711;54.018;9.300;2022-09-09T06:59:13;16.80;99.90
31046;DHT22;17711;54.018;9.300;2022-09-09T07:01:49;16.80;99.90
31046;DHT22;17711;54.018;9.300;2022-09-09T07:04:21;16.80;99.90
31046;DHT22;17711;54.018;9.300;2022-09-09T07:06:53;16.90;99.90
31046;DHT22;17711;54.018;9.300;2022-09-09T07:09:23;16.90;99.90
31046;DHT22;17711;54.018;9.300;2022-09-09T07:11:52;16.90;99.90
31046;DHT22;17711;54.018;9.300;2022-09-09T07:14:20;17.00;99.90
31046;DHT22;17711;54.018;9.300;2022-09-09T07:16:50;17.00;99.90
31046;DHT22;17711;54.018;9.300;2022-09-09T07:19:24;17.00;99.90
31046;DHT22;17711;54.018;9.300;2022-09-09T07:21:53;17.10;99.90
31046;DHT22;17711;54.018;9.300;2022-09-09T07:24:25;17.00;99.90
31046;DHT22;17711;54.018;9.300;2022-09-09T07:26:57;17.10;99.90
31046;DHT22;17711;54.018;9.300;2022-09-09T07:29:26;17.30;99.90
31046;DHT22;17711;54.018;9.300;2022-09-09T07:31:55;17.50;99.90
31046;DHT22;17711;54.018;9.300;2022-09-09T07:34:24;17.70;99.90
31046;DHT22;17711;54.018;9.300;2022-09-09T07:36:53;17.90;99.90
31046;DHT22;17711;54.018;9.300;2022-09-09T07:39:22;18.20;99.90
31046;DHT22;17711;54.018;9.300;2022-09-09T07:41:51;18.40;99.90
31046;DHT22;17711;54.018;9.300;2022-09-09T07:44:22;18.60;99.90
31046;DHT22;17711;54.018;9.300;2022-09-09T07:46:52;18.50;99.90
31046;DHT22;17711;54.018;9.300;2022-09-09T07:49:20;18.40;99.90
31046;DHT22;17711;54.018;9.300;2022-09-09T07:51:58;18.30;99.90
31046;DHT22;17711;54.018;9.300;2022-09-09T07:54:28;18.30;99.90
31046;DHT22;17711;54.018;9.300;2022-09-09T07:56:59;18.30;99.90
31046;DHT22;17711;54.018;9.300;2022-09-09T07:59:27;18.30;99.90
31046;DHT22;17711;54.018;9.300;2022-09-09T08:01:57;18.20;99.90
31046;DHT22;17711;54.018;9.300;2022-09-09T08:04:26;18.40;99.90
31046;DHT22;17711;54.018;9.300;2022-09-09T08:06:57;18.50;99.90
31046;DHT22;17711;54.018;9.300;2022-09-09T08:09:28;18.50;99.90
31046;DHT22;17711;54.018;9.300;2022-09-09T08:11:57;18.50;99.90
31046;DHT22;17711;54.018;9.300;2022-09-09T08:14:27;18.60;99.90
31046;DHT22;17711;54.018;9.300;2022-09-09T08:16:56;18.70;99.90
31046;DHT22;17711;54.018;9.300;2022-09-09T08:19:25;18.70;99.90
31046;DHT22;17711;54.018;9.300;2022-09-09T08:21:56;19.10;99.90
31046;DHT22;17711;54.018;9.300;2022-09-09T08:24:24;20.20;99.90
31046;DHT22;17711;54.018;9.300;2022-09-09T08:26:55;21.40;99.90
31046;DHT22;17711;54.018;9.300;2022-09-09T08:29:23;22.60;99.90
31046;DHT22;17711;54.018;9.300;2022-09-09T08:31:53;22.80;99.90
31046;DHT22;17711;54.018;9.300;2022-09-09T08:34:26;23.80;99.90
31046;DHT22;17711;54.018;9.300;2022-09-09T08:36:56;24.20;99.90
31046;DHT22;17711;54.018;9.300;2022-09-09T08:39:24;23.30;99.90
31046;DHT22;17711;54.018;9.300;2022-09-09T08:42:13;22.90;99.90
31046;DHT22;17711;54.018;9.300;2022-09-09T08:47:44;25.40;99.90
31046;DHT22;17711;54.018;9.300;2022-09-09T08:50:21;25.70;99.90
31046;DHT22;17711;54.018;9.300;2022-09-09T08:52:56;25.50;96.30
31046;DHT22;17711;54.018;9.300;2022-09-09T08:55:38;26.20;99.90
31046;DHT22;17711;54.018;9.300;2022-09-09T08:58:14;27.70;93.80
31046;DHT22;17711;54.018;9.300;2022-09-09T09:00:55;28.50;87.30
31046;DHT22;17711;54.018;9.300;2022-09-09T09:03:33;27.70;81.10
31046;DHT22;17711;54.018;9.300;2022-09-09T09:06:09;27.20;81.90
31046;DHT22;17711;54.018;9.300;2022-09-09T09:08:46;27.50;79.60
31046;DHT22;17711;54.018;9.300;2022-09-09T09:11:16;28.60;83.80
31046;DHT22;17711;54.018;9.300;2022-09-09T09:13:52;29.50;75.10
31046;DHT22;17711;54.018;9.300;2022-09-09T09:16:26;29.30;68.20
31046;DHT22;17711;54.018;9.300;2022-09-09T09:18:59;28.30;64.20
31046;DHT22;17711;54.018;9.300;2022-09-09T09:21:34;27.80;80.30
31046;DHT22;17711;54.018;9.300;2022-09-09T09:24:07;28.90;69.80
31046;DHT22;17711;54.018;9.300;2022-09-09T09:26:39;30.50;74.40
31046;DHT22;17711;54.018;9.300;2022-09-09T09:29:12;31.10;63.10
31046;DHT22;17711;54.018;9.300;2022-09-09T09:31:44;30.20;59.00
31046;DHT22;17711;54.018;9.300;2022-09-09T09:34:14;29.20;60.20
31046;DHT22;17711;54.018;9.300;2022-09-09T09:36:53;27.90;65.10
31046;DHT22;17711;54.018;9.300;2022-09-09T09:39:24;26.70;70.50
31046;DHT22;17711;54.018;9.300;2022-09-09T09:42:15;26.60;77.70
31046;DHT22;17711;54.018;9.300;2022-09-09T09:44:51;26.30;81.70
31046;DHT22;17711;54.018;9.300;2022-09-09T09:47:21;26.00;82.50
31046;DHT22;17711;54.018;9.300;2022-09-09T09:49:54;25.50;83.50
31046;DHT22;17711;54.018;9.300;2022-09-09T09:52:24;25.10;95.80
31046;DHT22;17711;54.018;9.300;2022-09-09T09:54:54;25.00;97.60
31046;DHT22;17711;54.018;9.300;2022-09-09T09:57:25;24.90;96.70
31046;DHT22;17711;54.018;9.300;2022-09-09T10:00:13;26.40;99.90
31046;DHT22;17711;54.018;9.300;2022-09-09T10:02:43;28.90;77.40
31046;DHT22;17711;54.018;9.300;2022-09-09T10:05:15;30.70;66.80
31046;DHT22;17711;54.018;9.300;2022-09-09T10:08:02;31.90;63.20
31046;DHT22;17711;54.018;9.300;2022-09-09T10:10:43;32.60;53.00
31046;DHT22;17711;54.018;9.300;2022-09-09T10:13:19;32.30;51.40
31046;DHT22;17711;54.018;9.300;2022-09-09T10:16:02;32.40;55.40
31046;DHT22;17711;54.018;9.300;2022-09-09T10:18:50;33.30;49.00
31046;DHT22;17711;54.018;9.300;2022-09-09T10:21:38;32.40;50.70
31046;DHT22;17711;54.018;9.300;2022-09-09T10:24:37;32.30;49.80
31046;DHT22;17711;54.018;9.300;2022-09-09T10:27:17;31.80;50.90
31046;DHT22;17711;54.018;9.300;2022-09-09T10:30:00;31.90;50.00
31046;DHT22;17711;54.018;9.300;2022-09-09T10:32:47;31.70;53.50
31046;DHT22;17711;54.018;9.300;2022-09-09T10:35:34;31.00;50.10
31046;DHT22;17711;54.018;9.300;2022-09-09T10:38:16;31.10;57.60
31046;DHT22;17711;54.018;9.300;2022-09-09T10:41:04;31.70;53.30
31046;DHT22;17711;54.018;9.300;2022-09-09T10:44:12;31.90;49.80
31046;DHT22;17711;54.018;9.300;2022-09-09T10:46:56;32.10;50.80
31046;DHT22;17711;54.018;9.300;2022-09-09T10:49:49;33.20;51.60
31046;DHT22;17711;54.018;9.300;2022-09-09T10:52:21;33.80;44.00
31046;DHT22;17711;54.018;9.300;2022-09-09T10:54:57;34.40;48.40
31046;DHT22;17711;54.018;9.300;2022-09-09T10:57:31;34.50;45.30
31046;DHT22;17711;54.018;9.300;2022-09-09T11:00:06;34.80;42.30
31046;DHT22;17711;54.018;9.300;2022-09-09T11:02:35;35.00;44.40
31046;DHT22;17711;54.018;9.300;2022-09-09T11:05:14;35.80;42.00
31046;DHT22;17711;54.018;9.300;2022-09-09T11:07:49;34.90;38.60
31046;DHT22;17711;54.018;9.300;2022-09-09T11:10:25;32.80;41.90
31046;DHT22;17711;54.018;9.300;2022-09-09T11:13:02;31.20;46.90
31046;DHT22;17711;54.018;9.300;2022-09-09T11:15:36;31.60;48.50
31046;DHT22;17711;54.018;9.300;2022-09-09T11:18:13;32.00;47.50
31046;DHT22;17711;54.018;9.300;2022-09-09T11:20:48;31.60;45.80
31046;DHT22;17711;54.018;9.300;2022-09-09T11:23:23;30.90;50.00
31046;DHT22;17711;54.018;9.300;2022-09-09T11:25:56;31.60;54.90
31046;DHT22;17711;54.018;9.300;2022-09-09T11:28:40;31.80;47.80
31046;DHT22;17711;54.018;9.300;2022-09-09T11:31:22;33.10;51.40
31046;DHT22;17711;54.018;9.300;2022-09-09T11:34:08;34.10;46.20
31046;DHT22;17711;54.018;9.300;2022-09-09T11:37:09;35.40;39.70
31046;DHT22;17711;54.018;9.300;2022-09-09T11:40:02;35.60;37.50
31046;DHT22;17711;54.018;9.300;2022-09-09T11:42:37;35.20;39.00
31046;DHT22;17711;54.018;9.300;2022-09-09T11:45:15;36.10;38.60
31046;DHT22;17711;54.018;9.300;2022-09-09T11:47:52;36.20;34.20
31046;DHT22;17711;54.018;9.300;2022-09-09T11:50:33;34.80;40.20
31046;DHT22;17711;54.018;9.300;2022-09-09T11:53:19;35.50;39.90
31046;DHT22;17711;54.018;9.300;2022-09-09T11:56:12;36.30;37.50
31046;DHT22;17711;54.018;9.300;2022-09-09T11:58:43;36.80;35.70
31046;DHT22;17711;54.018;9.300;2022-09-09T12:01:16;35.60;38.00
31046;DHT22;17711;54.018;9.300;2022-09-09T12:04:22;34.40;40.90
31046;DHT22;17711;54.018;9.300;2022-09-09T12:06:58;35.00;43.30
31046;DHT22;17711;54.018;9.300;2022-09-09T12:09:39;35.00;43.90
31046;DHT22;17711;54.018;9.300;2022-09-09T12:12:24;33.50;38.90
31046;DHT22;17711;54.018;9.300;2022-09-09T12:15:00;31.70;42.70
31046;DHT22;17711;54.018;9.300;2022-09-09T12:17:30;30.50;46.90
31046;DHT22;17711;54.018;9.300;2022-09-09T12:20:03;30.30;50.80
31046;DHT22;17711;54.018;9.300;2022-09-09T12:22:40;31.70;52.00
31046;DHT22;17711;54.018;9.300;2022-09-09T12:25:21;32.70;45.80
31046;DHT22;17711;54.018;9.300;2022-09-09T12:28:01;32.80;42.60
31046;DHT22;17711;54.018;9.300;2022-09-09T12:30:34;33.20;45.40
31046;DHT22;17711;54.018;9.300;2022-09-09T12:33:10;33.90;44.80
31046;DHT22;17711;54.018;9.300;2022-09-09T12:35:42;34.60;43.90
31046;DHT22;17711;54.018;9.300;2022-09-09T12:38:12;35.50;39.60
31046;DHT22;17711;54.018;9.300;2022-09-09T12:40:54;36.20;39.20
31046;DHT22;17711;54.018;9.300;2022-09-09T12:43:24;36.80;36.60
31046;DHT22;17711;54.018;9.300;2022-09-09T12:45:56;35.80;34.40
31046;DHT22;17711;54.018;9.300;2022-09-09T12:48:34;35.10;35.60
31046;DHT22;17711;54.018;9.300;2022-09-09T12:51:19;34.90;37.80
31046;DHT22;17711;54.018;9.300;2022-09-09T12:53:51;34.40;40.50
31046;DHT22;17711;54.018;9.300;2022-09-09T12:56:23;33.90;40.50
31046;DHT22;17711;54.018;9.300;2022-09-09T12:58:55;33.70;41.60
31046;DHT22;17711;54.018;9.300;2022-09-09T13:01:26;34.10;47.30
31046;DHT22;17711;54.018;9.300;2022-09-09T13:03:56;34.40;39.40
31046;DHT22;17711;54.018;9.300;2022-09-09T13:06:26;33.90;42.40
31046;DHT22;17711;54.018;9.300;2022-09-09T13:08:57;34.30;42.40
31046;DHT22;17711;54.018;9.300;2022-09-09T13:11:31;34.90;39.50
31046;DHT22;17711;54.018;9.300;2022-09-09T13:14:04;35.60;40.60
31046;DHT22;17711;54.018;9.300;2022-09-09T13:16:35;36.10;40.30
31046;DHT22;17711;54.018;9.300;2022-09-09T13:19:13;36.20;39.10
31046;DHT22;17711;54.018;9.300;2022-09-09T13:21:42;35.90;39.00
31046;DHT22;17711;54.018;9.300;2022-09-09T13:24:28;34.60;38.50
31046;DHT22;17711;54.018;9.300;2022-09-09T13:27:00;33.60;41.10
31046;DHT22;17711;54.018;9.300;2022-09-09T13:29:30;32.30;40.40
31046;DHT22;17711;54.018;9.300;2022-09-09T13:32:04;31.50;46.30
31046;DHT22;17711;54.018;9.300;2022-09-09T13:34:34;30.70;51.70
31046;DHT22;17711;54.018;9.300;2022-09-09T13:37:05;29.90;48.00
31046;DHT22;17711;54.018;9.300;2022-09-09T13:39:36;29.30;49.50
31046;DHT22;17711;54.018;9.300;2022-09-09T13:42:22;28.90;52.40
31046;DHT22;17711;54.018;9.300;2022-09-09T13:44:52;28.70;55.50
31046;DHT22;17711;54.018;9.300;2022-09-09T13:47:28;28.20;55.30
31046;DHT22;17711;54.018;9.300;2022-09-09T13:49:58;27.90;57.60
31046;DHT22;17711;54.018;9.300;2022-09-09T13:52:27;27.70;59.30
31046;DHT22;17711;54.018;9.300;2022-09-09T13:54:57;27.30;62.20
31046;DHT22;17711;54.018;9.300;2022-09-09T13:57:27;26.80;61.90
31046;DHT22;17711;54.018;9.300;2022-09-09T13:59:56;26.50;64.70
31046;DHT22;17711;54.018;9.300;2022-09-09T14:02:31;26.10;72.30
31046;DHT22;17711;54.018;9.300;2022-09-09T14:05:00;25.60;74.20
31046;DHT22;17711;54.018;9.300;2022-09-09T14:07:29;25.30;74.80
31046;DHT22;17711;54.018;9.300;2022-09-09T14:09:59;25.00;77.60
31046;DHT22;17711;54.018;9.300;2022-09-09T14:12:29;24.80;83.70
31046;DHT22;17711;54.018;9.300;2022-09-09T14:14:57;24.60;82.00
31046;DHT22;17711;54.018;9.300;2022-09-09T14:17:26;24.40;91.50
31046;DHT22;17711;54.018;9.300;2022-09-09T14:19:57;24.20;97.10
31046;DHT22;17711;54.018;9.300;2022-09-09T14:22:27;23.90;94.60
31046;DHT22;17711;54.018;9.300;2022-09-09T14:24:55;23.70;99.90
31046;DHT22;17711;54.018;9.300;2022-09-09T14:27:24;23.60;99.90
31046;DHT22;17711;54.018;9.300;2022-09-09T14:29:55;23.40;99.90
31046;DHT22;17711;54.018;9.300;2022-09-09T14:32:25;23.30;99.90
31046;DHT22;17711;54.018;9.300;2022-09-09T14:34:54;23.10;99.90
31046;DHT22;17711;54.018;9.300;2022-09-09T14:37:27;22.90;99.90
31046;DHT22;17711;54.018;9.300;2022-09-09T14:39:59;22.60;99.90
31046;DHT22;17711;54.018;9.300;2022-09-09T14:42:28;22.50;99.90
31046;DHT22;17711;54.018;9.300;2022-09-09T14:44:59;22.40;99.90
31046;DHT22;17711;54.018;9.300;2022-09-09T14:47:32;22.30;99.90
31046;DHT22;17711;54.018;9.300;2022-09-09T14:50:01;22.00;99.90
31046;DHT22;17711;54.018;9.300;2022-09-09T14:52:33;21.60;99.90
31046;DHT22;17711;54.018;9.300;2022-09-09T14:55:08;21.00;99.90
31046;DHT22;17711;54.018;9.300;2022-09-09T14:57:39;20.40;99.90
31046;DHT22;17711;54.018;9.300;2022-09-09T15:00:12;20.10;99.90
31046;DHT22;17711;54.018;9.300;2022-09-09T15:02:42;19.80;99.90
31046;DHT22;17711;54.018;9.300;2022-09-09T15:05:11;19.60;99.90
31046;DHT22;17711;54.018;9.300;2022-09-09T15:07:40;19.50;99.90
31046;DHT22;17711;54.018;9.300;2022-09-09T15:10:10;19.30;99.90
31046;DHT22;17711;54.018;9.300;2022-09-09T15:12:44;19.10;99.90
31046;DHT22;17711;54.018;9.300;2022-09-09T15:15:15;18.80;99.90
31046;DHT22;17711;54.018;9.300;2022-09-09T15:17:46;18.50;99.90
31046;DHT22;17711;54.018;9.300;2022-09-09T15:20:15;18.40;99.90
31046;DHT22;17711;54.018;9.300;2022-09-09T15:22:45;18.40;99.90
31046;DHT22;17711;54.018;9.300;2022-09-09T15:25:14;18.30;99.90
31046;DHT22;17711;54.018;9.300;2022-09-09T15:27:46;18.30;99.90
31046;DHT22;17711;54.018;9.300;2022-09-09T15:30:16;18.10;99.90
31046;DHT22;17711;54.018;9.300;2022-09-09T15:32:45;18.10;99.90
31046;DHT22;17711;54.018;9.300;2022-09-09T15:35:14;18.00;99.90
31046;DHT22;17711;54.018;9.300;2022-09-09T15:37:44;18.00;99.90
31046;DHT22;17711;54.018;9.300;2022-09-09T15:40:14;18.00;99.90
31046;DHT22;17711;54.018;9.300;2022-09-09T15:42:47;18.00;99.90
31046;DHT22;17711;54.018;9.300;2022-09-09T15:45:20;18.00;99.90
31046;DHT22;17711;54.018;9.300;2022-09-09T15:47:50;18.00;99.90
31046;DHT22;17711;54.018;9.300;2022-09-09T15:50:20;18.10;99.90
31046;DHT22;17711;54.018;9.300;2022-09-09T15:52:52;18.10;99.90
31046;DHT22;17711;54.018;9.300;2022-09-09T15:55:24;18.10;99.90
31046;DHT22;17711;54.018;9.300;2022-09-09T15:57:55;18.10;99.90
31046;DHT22;17711;54.018;9.300;2022-09-09T16:00:28;18.20;99.90
31046;DHT22;17711;54.018;9.300;2022-09-09T16:02:57;18.20;99.90
31046;DHT22;17711;54.018;9.300;2022-09-09T16:05:27;18.20;99.90
31046;DHT22;17711;54.018;9.300;2022-09-09T16:07:56;18.30;99.90
31046;DHT22;17711;54.018;9.300;2022-09-09T16:10:26;18.20;99.90